This is the latest recevied weather packets stored in our database for station/object KB2M. If no packets are shown the sender has not sent any weather packets the latest 10 day(s).
| Time | Temp. | Humidity | Pressure | Rain* | Wind** | Luminosity | Snow |
|---|---|---|---|---|---|---|---|
| 1787950986 | 27.22° C | 82% | 1017.6 hPa | 0 mm | - | - | - |
| 1787950386 | 27.78° C | 80% | 1017.9 hPa | 0 mm | - | - | - |
| 1787949756 | 27.78° C | 80% | 1018.2 hPa | 0 mm | - | - | - |
| 1787949156 | 27.78° C | 80% | 1018.6 hPa | 0 mm | - | - | - |
| 1787948556 | 27.22° C | 82% | 1018.6 hPa | 0 mm | - | - | - |
| 1787947956 | 27.22° C | 83% | 1018.9 hPa | 0 mm | - | - | - |
| 1787947326 | 27.22° C | 84% | 1018.9 hPa | 0 mm | - | - | - |
| 1787946696 | 26.67° C | 86% | 1019.3 hPa | 0 mm | - | - | - |
| 1787946096 | 26.11° C | 86% | 1019.3 hPa | 0 mm | - | - | - |
| 1787945496 | 26.11° C | 86% | 1019.3 hPa | 1.27 mm | - | - | - |
| 1787944896 | 26.67° C | 85% | 1019.3 hPa | 2.03 mm | - | - | - |
| 1787944266 | 26.11° C | 88% | 1019.3 hPa | 2.03 mm | - | - | - |
| 1787943636 | 26.11° C | 87% | 1019.3 hPa | 2.03 mm | - | - | - |
| 1787943006 | 26.11° C | 88% | 1018.9 hPa | 2.03 mm | - | - | - |
| 1787942406 | 26.11° C | 88% | 1018.9 hPa | 2.03 mm | - | - | - |
| 1787941806 | 26.67° C | 83% | 1018.9 hPa | 0.51 mm | - | - | - |
| 1787941176 | 30° C | 71% | 1018.6 hPa | 0 mm | - | - | - |
| 1787940576 | 30.56° C | 69% | 1018.6 hPa | 0 mm | - | - | - |
| 1787939946 | 30.56° C | 70% | 1018.9 hPa | 0 mm | - | - | - |
| 1787939316 | 30° C | 69% | 1018.9 hPa | 0 mm | - | - | - |
| 1787938716 | 30.56° C | 69% | 1018.6 hPa | 0 mm | - | - | - |
| 1787938086 | 30.56° C | 70% | 1018.9 hPa | 0 mm | - | - | - |
| 1787937486 | 30° C | 72% | 1019.3 hPa | 0 mm | - | - | - |
| 1787936886 | 30° C | 71% | 1019.3 hPa | 0 mm | - | - | - |
| 1787936286 | 30° C | 71% | 1019.3 hPa | 0 mm | - | - | - |
* Rain latest hour (hover to see other rain measurements)
** Current wind speed in m/s (hover to see current wind gust speed)